sensor_id;sensor_type;location;lat;lon;timestamp;P1;durP1;ratioP1;P2;durP2;ratioP2
40515;SDS011;26216;53.724;9.898;2023-02-26T00:01:14;2.58;;;0.70;;
40515;SDS011;26216;53.724;9.898;2023-02-26T00:03:41;1.65;;;0.70;;
40515;SDS011;26216;53.724;9.898;2023-02-26T00:06:07;2.15;;;0.82;;
40515;SDS011;26216;53.724;9.898;2023-02-26T00:08:34;2.20;;;0.70;;
40515;SDS011;26216;53.724;9.898;2023-02-26T00:11:00;1.77;;;0.80;;
40515;SDS011;26216;53.724;9.898;2023-02-26T00:13:30;1.75;;;0.70;;
40515;SDS011;26216;53.724;9.898;2023-02-26T00:15:57;2.15;;;0.77;;
40515;SDS011;26216;53.724;9.898;2023-02-26T00:18:25;1.92;;;0.60;;
40515;SDS011;26216;53.724;9.898;2023-02-26T00:20:51;2.72;;;0.70;;
40515;SDS011;26216;53.724;9.898;2023-02-26T00:23:17;2.10;;;0.68;;
40515;SDS011;26216;53.724;9.898;2023-02-26T00:25:44;2.05;;;0.70;;
40515;SDS011;26216;53.724;9.898;2023-02-26T00:28:10;2.22;;;0.77;;
40515;SDS011;26216;53.724;9.898;2023-02-26T00:30:36;3.00;;;0.93;;
40515;SDS011;26216;53.724;9.898;2023-02-26T00:33:03;2.08;;;0.70;;
40515;SDS011;26216;53.724;9.898;2023-02-26T00:35:30;3.22;;;0.75;;
40515;SDS011;26216;53.724;9.898;2023-02-26T00:40:43;1.73;;;0.55;;
40515;SDS011;26216;53.724;9.898;2023-02-26T00:43:15;2.17;;;0.50;;
40515;SDS011;26216;53.724;9.898;2023-02-26T00:48:46;0.98;;;0.45;;
40515;SDS011;26216;53.724;9.898;2023-02-26T00:54:04;1.60;;;0.50;;
40515;SDS011;26216;53.724;9.898;2023-02-26T00:56:36;1.02;;;0.50;;
40515;SDS011;26216;53.724;9.898;2023-02-26T00:59:02;2.30;;;0.73;;
40515;SDS011;26216;53.724;9.898;2023-02-26T01:01:28;0.98;;;0.50;;
40515;SDS011;26216;53.724;9.898;2023-02-26T01:03:54;2.10;;;0.63;;
40515;SDS011;26216;53.724;9.898;2023-02-26T01:06:20;2.08;;;0.50;;
40515;SDS011;26216;53.724;9.898;2023-02-26T01:08:51;3.65;;;0.85;;
40515;SDS011;26216;53.724;9.898;2023-02-26T01:11:39;0.85;;;0.50;;
40515;SDS011;26216;53.724;9.898;2023-02-26T01:14:05;1.83;;;0.65;;
40515;SDS011;26216;53.724;9.898;2023-02-26T01:16:37;2.47;;;0.73;;
40515;SDS011;26216;53.724;9.898;2023-02-26T01:19:17;2.67;;;0.60;;
40515;SDS011;26216;53.724;9.898;2023-02-26T01:21:48;1.60;;;0.60;;
40515;SDS011;26216;53.724;9.898;2023-02-26T01:24:20;2.97;;;0.98;;
40515;SDS011;26216;53.724;9.898;2023-02-26T01:26:48;2.40;;;0.70;;
40515;SDS011;26216;53.724;9.898;2023-02-26T01:29:15;4.00;;;1.15;;
40515;SDS011;26216;53.724;9.898;2023-02-26T01:31:42;1.60;;;0.70;;
40515;SDS011;26216;53.724;9.898;2023-02-26T01:34:21;2.70;;;0.98;;
40515;SDS011;26216;53.724;9.898;2023-02-26T01:42:41;2.45;;;0.80;;
40515;SDS011;26216;53.724;9.898;2023-02-26T01:47:42;2.78;;;0.70;;
40515;SDS011;26216;53.724;9.898;2023-02-26T01:50:22;2.55;;;0.82;;
40515;SDS011;26216;53.724;9.898;2023-02-26T01:55:43;2.22;;;0.80;;
40515;SDS011;26216;53.724;9.898;2023-02-26T01:58:13;1.60;;;0.65;;
40515;SDS011;26216;53.724;9.898;2023-02-26T02:00:39;2.40;;;0.80;;
40515;SDS011;26216;53.724;9.898;2023-02-26T02:03:05;1.33;;;0.73;;
40515;SDS011;26216;53.724;9.898;2023-02-26T02:05:35;2.22;;;0.70;;
40515;SDS011;26216;53.724;9.898;2023-02-26T02:08:07;4.32;;;0.90;;
40515;SDS011;26216;53.724;9.898;2023-02-26T02:10:33;3.40;;;0.88;;
40515;SDS011;26216;53.724;9.898;2023-02-26T02:13:04;1.45;;;0.65;;
40515;SDS011;26216;53.724;9.898;2023-02-26T02:16:06;1.38;;;0.50;;
40515;SDS011;26216;53.724;9.898;2023-02-26T02:21:44;1.25;;;0.70;;
40515;SDS011;26216;53.724;9.898;2023-02-26T02:27:21;2.10;;;0.70;;
40515;SDS011;26216;53.724;9.898;2023-02-26T02:30:07;1.80;;;0.50;;
40515;SDS011;26216;53.724;9.898;2023-02-26T02:32:48;3.65;;;0.70;;
40515;SDS011;26216;53.724;9.898;2023-02-26T02:35:19;2.60;;;0.68;;
40515;SDS011;26216;53.724;9.898;2023-02-26T02:38:06;1.80;;;0.60;;
40515;SDS011;26216;53.724;9.898;2023-02-26T02:40:39;1.38;;;0.60;;
40515;SDS011;26216;53.724;9.898;2023-02-26T02:43:15;3.25;;;1.38;;
40515;SDS011;26216;53.724;9.898;2023-02-26T02:45:48;0.93;;;0.50;;
40515;SDS011;26216;53.724;9.898;2023-02-26T02:48:28;1.70;;;0.60;;
40515;SDS011;26216;53.724;9.898;2023-02-26T02:51:18;2.55;;;0.65;;
40515;SDS011;26216;53.724;9.898;2023-02-26T02:53:59;2.15;;;0.80;;
40515;SDS011;26216;53.724;9.898;2023-02-26T02:56:57;1.55;;;0.57;;
40515;SDS011;26216;53.724;9.898;2023-02-26T02:59:40;4.22;;;0.90;;
40515;SDS011;26216;53.724;9.898;2023-02-26T03:02:20;2.15;;;0.85;;
40515;SDS011;26216;53.724;9.898;2023-02-26T03:04:55;1.75;;;0.57;;
40515;SDS011;26216;53.724;9.898;2023-02-26T03:07:21;1.77;;;0.60;;
40515;SDS011;26216;53.724;9.898;2023-02-26T03:09:47;1.10;;;0.40;;
40515;SDS011;26216;53.724;9.898;2023-02-26T03:12:13;1.55;;;0.60;;
40515;SDS011;26216;53.724;9.898;2023-02-26T03:14:39;1.55;;;0.60;;
40515;SDS011;26216;53.724;9.898;2023-02-26T03:17:18;2.42;;;0.65;;
40515;SDS011;26216;53.724;9.898;2023-02-26T03:20:08;2.38;;;0.77;;
40515;SDS011;26216;53.724;9.898;2023-02-26T03:22:50;1.23;;;0.45;;
40515;SDS011;26216;53.724;9.898;2023-02-26T03:33:59;2.00;;;0.47;;
40515;SDS011;26216;53.724;9.898;2023-02-26T03:36:52;0.93;;;0.52;;
40515;SDS011;26216;53.724;9.898;2023-02-26T03:39:39;2.13;;;0.60;;
40515;SDS011;26216;53.724;9.898;2023-02-26T03:47:17;1.92;;;0.60;;
40515;SDS011;26216;53.724;9.898;2023-02-26T03:49:49;0.60;;;0.40;;
40515;SDS011;26216;53.724;9.898;2023-02-26T03:52:27;1.42;;;0.40;;
40515;SDS011;26216;53.724;9.898;2023-02-26T03:55:02;0.65;;;0.40;;
40515;SDS011;26216;53.724;9.898;2023-02-26T03:57:32;0.80;;;0.40;;
40515;SDS011;26216;53.724;9.898;2023-02-26T03:59:58;0.70;;;0.50;;
40515;SDS011;26216;53.724;9.898;2023-02-26T04:02:26;1.13;;;0.50;;
40515;SDS011;26216;53.724;9.898;2023-02-26T04:07:35;0.80;;;0.45;;
40515;SDS011;26216;53.724;9.898;2023-02-26T04:10:02;1.38;;;0.60;;
40515;SDS011;26216;53.724;9.898;2023-02-26T04:12:28;2.13;;;0.40;;
40515;SDS011;26216;53.724;9.898;2023-02-26T04:14:54;0.93;;;0.40;;
40515;SDS011;26216;53.724;9.898;2023-02-26T04:17:21;1.30;;;0.57;;
40515;SDS011;26216;53.724;9.898;2023-02-26T04:19:47;1.65;;;0.60;;
40515;SDS011;26216;53.724;9.898;2023-02-26T04:22:13;2.47;;;1.17;;
40515;SDS011;26216;53.724;9.898;2023-02-26T04:24:39;2.22;;;0.50;;
40515;SDS011;26216;53.724;9.898;2023-02-26T04:27:04;2.88;;;0.55;;
40515;SDS011;26216;53.724;9.898;2023-02-26T04:29:30;1.10;;;0.50;;
40515;SDS011;26216;53.724;9.898;2023-02-26T04:31:56;1.48;;;0.50;;
40515;SDS011;26216;53.724;9.898;2023-02-26T04:34:22;1.65;;;0.50;;
40515;SDS011;26216;53.724;9.898;2023-02-26T04:36:48;1.60;;;0.70;;
40515;SDS011;26216;53.724;9.898;2023-02-26T04:39:13;1.40;;;0.55;;
40515;SDS011;26216;53.724;9.898;2023-02-26T04:41:39;1.27;;;0.50;;
40515;SDS011;26216;53.724;9.898;2023-02-26T04:44:05;2.35;;;0.60;;
40515;SDS011;26216;53.724;9.898;2023-02-26T04:46:31;1.58;;;0.50;;
40515;SDS011;26216;53.724;9.898;2023-02-26T04:48:57;1.77;;;0.43;;
40515;SDS011;26216;53.724;9.898;2023-02-26T04:51:23;1.95;;;0.60;;
40515;SDS011;26216;53.724;9.898;2023-02-26T04:53:49;1.60;;;0.73;;
40515;SDS011;26216;53.724;9.898;2023-02-26T04:56:15;1.40;;;0.68;;
40515;SDS011;26216;53.724;9.898;2023-02-26T04:58:41;1.10;;;0.60;;
40515;SDS011;26216;53.724;9.898;2023-02-26T05:01:07;1.08;;;0.50;;
40515;SDS011;26216;53.724;9.898;2023-02-26T05:03:33;2.13;;;0.50;;
40515;SDS011;26216;53.724;9.898;2023-02-26T05:05:58;3.83;;;0.70;;
40515;SDS011;26216;53.724;9.898;2023-02-26T05:08:24;2.00;;;0.70;;
40515;SDS011;26216;53.724;9.898;2023-02-26T05:10:51;1.23;;;0.50;;
40515;SDS011;26216;53.724;9.898;2023-02-26T05:13:17;2.08;;;0.57;;
40515;SDS011;26216;53.724;9.898;2023-02-26T05:15:43;1.42;;;0.47;;
40515;SDS011;26216;53.724;9.898;2023-02-26T05:18:09;1.83;;;0.32;;
40515;SDS011;26216;53.724;9.898;2023-02-26T05:20:35;1.40;;;0.50;;
40515;SDS011;26216;53.724;9.898;2023-02-26T05:23:01;1.38;;;0.40;;
40515;SDS011;26216;53.724;9.898;2023-02-26T05:25:27;0.75;;;0.50;;
40515;SDS011;26216;53.724;9.898;2023-02-26T05:27:53;2.72;;;0.85;;
40515;SDS011;26216;53.724;9.898;2023-02-26T05:30:19;1.70;;;0.80;;
40515;SDS011;26216;53.724;9.898;2023-02-26T05:32:46;1.05;;;0.50;;
40515;SDS011;26216;53.724;9.898;2023-02-26T05:35:12;1.25;;;0.40;;
40515;SDS011;26216;53.724;9.898;2023-02-26T05:37:38;1.75;;;0.55;;
40515;SDS011;26216;53.724;9.898;2023-02-26T05:40:04;1.35;;;0.65;;
40515;SDS011;26216;53.724;9.898;2023-02-26T05:42:35;1.08;;;0.55;;
40515;SDS011;26216;53.724;9.898;2023-02-26T05:45:02;1.33;;;0.60;;
40515;SDS011;26216;53.724;9.898;2023-02-26T05:47:31;1.17;;;0.40;;
40515;SDS011;26216;53.724;9.898;2023-02-26T05:49:58;1.60;;;0.75;;
40515;SDS011;26216;53.724;9.898;2023-02-26T05:52:23;0.77;;;0.30;;
40515;SDS011;26216;53.724;9.898;2023-02-26T05:54:49;2.55;;;0.70;;
40515;SDS011;26216;53.724;9.898;2023-02-26T05:57:15;2.83;;;0.80;;
40515;SDS011;26216;53.724;9.898;2023-02-26T05:59:41;0.80;;;0.50;;
40515;SDS011;26216;53.724;9.898;2023-02-26T06:02:06;2.47;;;0.55;;
40515;SDS011;26216;53.724;9.898;2023-02-26T06:04:32;1.63;;;0.70;;
40515;SDS011;26216;53.724;9.898;2023-02-26T06:06:58;3.50;;;0.70;;
40515;SDS011;26216;53.724;9.898;2023-02-26T06:09:25;3.72;;;0.60;;
40515;SDS011;26216;53.724;9.898;2023-02-26T06:11:50;1.35;;;0.70;;
40515;SDS011;26216;53.724;9.898;2023-02-26T06:14:16;1.20;;;0.50;;
40515;SDS011;26216;53.724;9.898;2023-02-26T06:16:42;2.83;;;0.85;;
40515;SDS011;26216;53.724;9.898;2023-02-26T06:19:08;2.35;;;0.70;;
40515;SDS011;26216;53.724;9.898;2023-02-26T06:21:34;1.73;;;0.60;;
40515;SDS011;26216;53.724;9.898;2023-02-26T06:24:00;1.40;;;0.70;;
40515;SDS011;26216;53.724;9.898;2023-02-26T06:26:25;0.43;;;0.43;;
40515;SDS011;26216;53.724;9.898;2023-02-26T06:28:51;2.47;;;0.65;;
40515;SDS011;26216;53.724;9.898;2023-02-26T06:31:18;2.05;;;0.63;;
40515;SDS011;26216;53.724;9.898;2023-02-26T06:33:44;1.95;;;0.80;;
40515;SDS011;26216;53.724;9.898;2023-02-26T06:36:10;5.13;;;0.80;;
40515;SDS011;26216;53.724;9.898;2023-02-26T06:38:36;2.38;;;0.90;;
40515;SDS011;26216;53.724;9.898;2023-02-26T06:41:02;1.92;;;0.77;;
40515;SDS011;26216;53.724;9.898;2023-02-26T06:43:28;1.33;;;0.60;;
40515;SDS011;26216;53.724;9.898;2023-02-26T06:45:56;1.80;;;0.80;;
40515;SDS011;26216;53.724;9.898;2023-02-26T06:48:22;1.92;;;0.60;;
40515;SDS011;26216;53.724;9.898;2023-02-26T06:50:48;2.75;;;0.88;;
40515;SDS011;26216;53.724;9.898;2023-02-26T06:53:14;3.35;;;0.95;;
40515;SDS011;26216;53.724;9.898;2023-02-26T06:55:43;1.50;;;0.82;;
40515;SDS011;26216;53.724;9.898;2023-02-26T06:58:10;3.72;;;0.95;;
40515;SDS011;26216;53.724;9.898;2023-02-26T07:00:37;3.03;;;1.05;;
40515;SDS011;26216;53.724;9.898;2023-02-26T07:03:04;4.60;;;1.10;;
40515;SDS011;26216;53.724;9.898;2023-02-26T07:05:30;1.77;;;0.80;;
40515;SDS011;26216;53.724;9.898;2023-02-26T07:07:56;2.38;;;0.70;;
40515;SDS011;26216;53.724;9.898;2023-02-26T07:10:22;3.33;;;0.80;;
40515;SDS011;26216;53.724;9.898;2023-02-26T07:12:49;2.63;;;0.90;;
40515;SDS011;26216;53.724;9.898;2023-02-26T07:15:15;1.95;;;1.00;;
40515;SDS011;26216;53.724;9.898;2023-02-26T07:17:42;2.25;;;0.80;;
40515;SDS011;26216;53.724;9.898;2023-02-26T07:20:08;2.88;;;0.82;;
40515;SDS011;26216;53.724;9.898;2023-02-26T07:22:35;3.28;;;1.08;;
40515;SDS011;26216;53.724;9.898;2023-02-26T07:25:02;2.65;;;0.85;;
40515;SDS011;26216;53.724;9.898;2023-02-26T07:27:29;1.67;;;0.77;;
40515;SDS011;26216;53.724;9.898;2023-02-26T07:29:57;2.65;;;1.00;;
40515;SDS011;26216;53.724;9.898;2023-02-26T07:32:24;3.78;;;1.13;;
40515;SDS011;26216;53.724;9.898;2023-02-26T07:34:50;2.92;;;1.33;;
40515;SDS011;26216;53.724;9.898;2023-02-26T07:37:16;3.05;;;0.98;;
40515;SDS011;26216;53.724;9.898;2023-02-26T07:39:43;5.68;;;1.60;;
40515;SDS011;26216;53.724;9.898;2023-02-26T07:42:09;2.72;;;1.20;;
40515;SDS011;26216;53.724;9.898;2023-02-26T07:44:35;2.70;;;1.10;;
40515;SDS011;26216;53.724;9.898;2023-02-26T07:47:01;3.30;;;1.05;;
40515;SDS011;26216;53.724;9.898;2023-02-26T07:49:27;3.92;;;1.23;;
40515;SDS011;26216;53.724;9.898;2023-02-26T07:51:53;4.65;;;1.15;;
40515;SDS011;26216;53.724;9.898;2023-02-26T07:54:19;3.13;;;1.35;;
40515;SDS011;26216;53.724;9.898;2023-02-26T07:56:45;2.28;;;1.05;;
40515;SDS011;26216;53.724;9.898;2023-02-26T07:59:11;2.80;;;1.00;;
40515;SDS011;26216;53.724;9.898;2023-02-26T08:01:37;3.03;;;1.13;;
40515;SDS011;26216;53.724;9.898;2023-02-26T08:04:03;5.05;;;1.30;;
40515;SDS011;26216;53.724;9.898;2023-02-26T08:06:29;4.95;;;1.52;;
40515;SDS011;26216;53.724;9.898;2023-02-26T08:08:55;5.15;;;1.05;;
40515;SDS011;26216;53.724;9.898;2023-02-26T08:11:21;5.05;;;1.20;;
40515;SDS011;26216;53.724;9.898;2023-02-26T08:13:47;3.47;;;1.15;;
40515;SDS011;26216;53.724;9.898;2023-02-26T08:16:13;5.13;;;1.38;;
40515;SDS011;26216;53.724;9.898;2023-02-26T08:18:39;5.15;;;1.23;;
40515;SDS011;26216;53.724;9.898;2023-02-26T08:21:05;5.30;;;1.67;;
40515;SDS011;26216;53.724;9.898;2023-02-26T08:23:31;3.53;;;1.00;;
40515;SDS011;26216;53.724;9.898;2023-02-26T08:26:05;3.50;;;1.50;;
40515;SDS011;26216;53.724;9.898;2023-02-26T08:28:33;4.10;;;1.35;;
40515;SDS011;26216;53.724;9.898;2023-02-26T08:30:59;2.65;;;1.27;;
40515;SDS011;26216;53.724;9.898;2023-02-26T08:33:26;4.45;;;1.25;;
40515;SDS011;26216;53.724;9.898;2023-02-26T08:35:52;3.60;;;1.73;;
40515;SDS011;26216;53.724;9.898;2023-02-26T08:38:18;4.47;;;1.38;;
40515;SDS011;26216;53.724;9.898;2023-02-26T08:40:47;5.20;;;1.25;;
40515;SDS011;26216;53.724;9.898;2023-02-26T08:43:13;3.83;;;1.35;;
40515;SDS011;26216;53.724;9.898;2023-02-26T08:45:39;3.08;;;1.08;;
40515;SDS011;26216;53.724;9.898;2023-02-26T08:48:05;1.65;;;1.00;;
40515;SDS011;26216;53.724;9.898;2023-02-26T08:50:31;2.67;;;1.05;;
40515;SDS011;26216;53.724;9.898;2023-02-26T08:52:57;3.60;;;1.17;;
40515;SDS011;26216;53.724;9.898;2023-02-26T08:55:23;4.93;;;1.20;;
40515;SDS011;26216;53.724;9.898;2023-02-26T08:57:49;4.75;;;1.42;;
40515;SDS011;26216;53.724;9.898;2023-02-26T09:00:15;2.78;;;1.50;;
40515;SDS011;26216;53.724;9.898;2023-02-26T09:02:42;5.03;;;1.30;;
40515;SDS011;26216;53.724;9.898;2023-02-26T09:05:08;3.15;;;1.13;;
40515;SDS011;26216;53.724;9.898;2023-02-26T09:07:36;4.25;;;1.20;;
40515;SDS011;26216;53.724;9.898;2023-02-26T09:10:03;3.80;;;1.25;;
40515;SDS011;26216;53.724;9.898;2023-02-26T09:12:29;2.38;;;1.20;;
40515;SDS011;26216;53.724;9.898;2023-02-26T09:14:55;4.97;;;1.45;;
40515;SDS011;26216;53.724;9.898;2023-02-26T09:17:23;5.00;;;1.50;;
40515;SDS011;26216;53.724;9.898;2023-02-26T09:19:50;3.53;;;1.02;;
40515;SDS011;26216;53.724;9.898;2023-02-26T09:22:16;1.80;;;0.90;;
40515;SDS011;26216;53.724;9.898;2023-02-26T09:24:42;2.08;;;0.90;;
40515;SDS011;26216;53.724;9.898;2023-02-26T09:27:08;3.00;;;1.00;;
40515;SDS011;26216;53.724;9.898;2023-02-26T09:29:33;3.33;;;1.08;;
40515;SDS011;26216;53.724;9.898;2023-02-26T09:31:59;2.83;;;1.00;;
40515;SDS011;26216;53.724;9.898;2023-02-26T09:34:26;1.98;;;0.90;;
40515;SDS011;26216;53.724;9.898;2023-02-26T09:36:51;4.35;;;1.13;;
40515;SDS011;26216;53.724;9.898;2023-02-26T09:39:17;2.28;;;0.93;;
40515;SDS011;26216;53.724;9.898;2023-02-26T09:41:45;3.55;;;1.10;;
40515;SDS011;26216;53.724;9.898;2023-02-26T09:44:18;2.30;;;1.20;;
40515;SDS011;26216;53.724;9.898;2023-02-26T09:52:22;3.17;;;1.00;;
40515;SDS011;26216;53.724;9.898;2023-02-26T09:54:56;3.10;;;0.82;;
40515;SDS011;26216;53.724;9.898;2023-02-26T09:57:32;2.08;;;0.63;;
40515;SDS011;26216;53.724;9.898;2023-02-26T10:00:03;1.35;;;0.60;;
40515;SDS011;26216;53.724;9.898;2023-02-26T10:02:41;1.92;;;0.70;;
40515;SDS011;26216;53.724;9.898;2023-02-26T10:05:16;2.10;;;0.70;;
40515;SDS011;26216;53.724;9.898;2023-02-26T10:07:57;2.45;;;0.90;;
40515;SDS011;26216;53.724;9.898;2023-02-26T10:13:09;2.83;;;0.82;;
40515;SDS011;26216;53.724;9.898;2023-02-26T10:16:21;1.35;;;0.55;;
40515;SDS011;26216;53.724;9.898;2023-02-26T10:18:52;2.47;;;0.80;;
40515;SDS011;26216;53.724;9.898;2023-02-26T10:21:24;1.80;;;0.57;;
40515;SDS011;26216;53.724;9.898;2023-02-26T10:24:12;3.97;;;0.95;;
40515;SDS011;26216;53.724;9.898;2023-02-26T10:26:44;1.65;;;0.80;;
40515;SDS011;26216;53.724;9.898;2023-02-26T10:32:13;1.75;;;0.73;;
40515;SDS011;26216;53.724;9.898;2023-02-26T10:34:50;3.25;;;0.70;;
40515;SDS011;26216;53.724;9.898;2023-02-26T10:40:17;1.85;;;0.70;;
40515;SDS011;26216;53.724;9.898;2023-02-26T10:42:57;1.17;;;0.60;;
40515;SDS011;26216;53.724;9.898;2023-02-26T10:51:04;1.00;;;0.60;;
40515;SDS011;26216;53.724;9.898;2023-02-26T10:53:37;1.77;;;0.90;;
40515;SDS011;26216;53.724;9.898;2023-02-26T10:56:07;4.05;;;1.40;;
40515;SDS011;26216;53.724;9.898;2023-02-26T10:58:38;4.32;;;1.20;;
40515;SDS011;26216;53.724;9.898;2023-02-26T11:01:06;4.45;;;1.35;;
40515;SDS011;26216;53.724;9.898;2023-02-26T11:03:44;3.95;;;1.50;;
40515;SDS011;26216;53.724;9.898;2023-02-26T11:06:29;5.32;;;1.30;;
40515;SDS011;26216;53.724;9.898;2023-02-26T11:08:59;3.45;;;1.30;;
40515;SDS011;26216;53.724;9.898;2023-02-26T11:11:38;2.42;;;0.80;;
40515;SDS011;26216;53.724;9.898;2023-02-26T11:14:08;3.10;;;1.10;;
40515;SDS011;26216;53.724;9.898;2023-02-26T11:16:34;1.70;;;0.88;;
40515;SDS011;26216;53.724;9.898;2023-02-26T11:19:34;3.15;;;1.10;;
40515;SDS011;26216;53.724;9.898;2023-02-26T11:22:03;2.38;;;0.82;;
40515;SDS011;26216;53.724;9.898;2023-02-26T11:27:02;4.55;;;1.85;;
40515;SDS011;26216;53.724;9.898;2023-02-26T11:29:39;1.77;;;0.82;;
40515;SDS011;26216;53.724;9.898;2023-02-26T11:32:29;2.20;;;1.10;;
40515;SDS011;26216;53.724;9.898;2023-02-26T11:34:57;2.85;;;0.90;;
40515;SDS011;26216;53.724;9.898;2023-02-26T11:37:27;2.28;;;0.80;;
40515;SDS011;26216;53.724;9.898;2023-02-26T11:40:04;2.28;;;1.00;;
40515;SDS011;26216;53.724;9.898;2023-02-26T11:42:39;2.67;;;1.05;;
40515;SDS011;26216;53.724;9.898;2023-02-26T11:45:17;2.42;;;0.82;;
40515;SDS011;26216;53.724;9.898;2023-02-26T11:47:45;2.08;;;0.80;;
40515;SDS011;26216;53.724;9.898;2023-02-26T11:50:14;3.63;;;1.27;;
40515;SDS011;26216;53.724;9.898;2023-02-26T11:52:53;3.28;;;1.17;;
40515;SDS011;26216;53.724;9.898;2023-02-26T11:55:21;2.47;;;0.98;;
40515;SDS011;26216;53.724;9.898;2023-02-26T11:58:19;4.90;;;1.33;;
40515;SDS011;26216;53.724;9.898;2023-02-26T12:00:47;3.50;;;1.40;;
40515;SDS011;26216;53.724;9.898;2023-02-26T12:03:20;3.10;;;1.20;;
40515;SDS011;26216;53.724;9.898;2023-02-26T12:05:51;3.75;;;1.50;;
40515;SDS011;26216;53.724;9.898;2023-02-26T12:10:57;4.10;;;1.73;;
40515;SDS011;26216;53.724;9.898;2023-02-26T12:13:37;2.25;;;0.98;;
40515;SDS011;26216;53.724;9.898;2023-02-26T12:16:27;2.92;;;1.00;;
40515;SDS011;26216;53.724;9.898;2023-02-26T12:18:59;2.05;;;0.80;;
40515;SDS011;26216;53.724;9.898;2023-02-26T12:21:51;2.97;;;1.00;;
40515;SDS011;26216;53.724;9.898;2023-02-26T12:24:47;2.70;;;0.90;;
40515;SDS011;26216;53.724;9.898;2023-02-26T12:38:18;2.42;;;1.10;;
40515;SDS011;26216;53.724;9.898;2023-02-26T12:41:02;2.20;;;0.80;;
40515;SDS011;26216;53.724;9.898;2023-02-26T12:43:48;3.00;;;0.90;;
40515;SDS011;26216;53.724;9.898;2023-02-26T12:46:29;3.90;;;1.27;;
40515;SDS011;26216;53.724;9.898;2023-02-26T13:06:21;4.20;;;1.17;;
40515;SDS011;26216;53.724;9.898;2023-02-26T13:19:46;3.95;;;1.20;;
40515;SDS011;26216;53.724;9.898;2023-02-26T13:22:24;3.78;;;1.30;;
40515;SDS011;26216;53.724;9.898;2023-02-26T13:24:59;2.90;;;1.20;;
40515;SDS011;26216;53.724;9.898;2023-02-26T13:27:30;4.22;;;1.60;;
40515;SDS011;26216;53.724;9.898;2023-02-26T13:30:22;5.78;;;1.55;;
40515;SDS011;26216;53.724;9.898;2023-02-26T13:32:52;4.70;;;1.55;;
40515;SDS011;26216;53.724;9.898;2023-02-26T13:35:35;5.55;;;1.80;;
40515;SDS011;26216;53.724;9.898;2023-02-26T13:38:18;5.43;;;1.83;;
40515;SDS011;26216;53.724;9.898;2023-02-26T13:40:52;3.88;;;1.05;;
40515;SDS011;26216;53.724;9.898;2023-02-26T13:43:54;3.85;;;1.10;;
40515;SDS011;26216;53.724;9.898;2023-02-26T13:46:53;2.33;;;1.20;;
40515;SDS011;26216;53.724;9.898;2023-02-26T13:49:36;2.50;;;0.70;;
40515;SDS011;26216;53.724;9.898;2023-02-26T13:52:32;2.65;;;0.95;;
40515;SDS011;26216;53.724;9.898;2023-02-26T13:55:01;2.00;;;0.77;;
40515;SDS011;26216;53.724;9.898;2023-02-26T14:02:53;2.33;;;0.80;;
40515;SDS011;26216;53.724;9.898;2023-02-26T14:05:50;2.60;;;1.00;;
40515;SDS011;26216;53.724;9.898;2023-02-26T14:08:26;1.95;;;0.70;;
40515;SDS011;26216;53.724;9.898;2023-02-26T14:11:23;2.67;;;0.90;;
40515;SDS011;26216;53.724;9.898;2023-02-26T14:14:17;2.78;;;0.88;;
40515;SDS011;26216;53.724;9.898;2023-02-26T14:17:17;2.55;;;0.63;;
40515;SDS011;26216;53.724;9.898;2023-02-26T14:32:46;3.58;;;1.30;;
40515;SDS011;26216;53.724;9.898;2023-02-26T14:35:32;1.70;;;0.90;;
40515;SDS011;26216;53.724;9.898;2023-02-26T14:38:25;2.58;;;0.82;;
40515;SDS011;26216;53.724;9.898;2023-02-26T14:43:59;4.55;;;1.15;;
40515;SDS011;26216;53.724;9.898;2023-02-26T14:46:26;3.65;;;1.35;;
40515;SDS011;26216;53.724;9.898;2023-02-26T14:48:53;1.50;;;0.88;;
40515;SDS011;26216;53.724;9.898;2023-02-26T14:57:19;3.05;;;1.30;;
40515;SDS011;26216;53.724;9.898;2023-02-26T14:59:32;2.58;;;1.00;;
40515;SDS011;26216;53.724;9.898;2023-02-26T15:02:16;3.70;;;1.60;;
40515;SDS011;26216;53.724;9.898;2023-02-26T15:07:37;3.50;;;0.85;;
40515;SDS011;26216;53.724;9.898;2023-02-26T15:10:21;1.85;;;0.77;;
40515;SDS011;26216;53.724;9.898;2023-02-26T15:13:09;2.72;;;1.23;;
40515;SDS011;26216;53.724;9.898;2023-02-26T15:18:36;3.40;;;0.80;;
40515;SDS011;26216;53.724;9.898;2023-02-26T15:21:32;2.35;;;0.80;;
40515;SDS011;26216;53.724;9.898;2023-02-26T15:24:08;1.60;;;0.80;;
40515;SDS011;26216;53.724;9.898;2023-02-26T15:26:39;2.75;;;1.20;;
40515;SDS011;26216;53.724;9.898;2023-02-26T15:29:26;7.57;;;3.28;;
40515;SDS011;26216;53.724;9.898;2023-02-26T15:32:01;4.93;;;2.40;;
40515;SDS011;26216;53.724;9.898;2023-02-26T15:34:41;2.83;;;1.10;;
40515;SDS011;26216;53.724;9.898;2023-02-26T15:37:22;3.00;;;0.98;;
40515;SDS011;26216;53.724;9.898;2023-02-26T15:39:50;3.92;;;1.10;;
40515;SDS011;26216;53.724;9.898;2023-02-26T15:42:17;2.25;;;0.70;;
40515;SDS011;26216;53.724;9.898;2023-02-26T15:44:46;2.40;;;0.90;;
40515;SDS011;26216;53.724;9.898;2023-02-26T15:47:13;2.17;;;0.70;;
40515;SDS011;26216;53.724;9.898;2023-02-26T15:49:42;3.05;;;1.10;;
40515;SDS011;26216;53.724;9.898;2023-02-26T15:52:12;2.17;;;1.05;;
40515;SDS011;26216;53.724;9.898;2023-02-26T15:54:45;1.65;;;0.70;;
40515;SDS011;26216;53.724;9.898;2023-02-26T15:57:17;2.03;;;1.00;;
40515;SDS011;26216;53.724;9.898;2023-02-26T15:59:46;2.55;;;1.05;;
40515;SDS011;26216;53.724;9.898;2023-02-26T16:02:47;1.90;;;0.90;;
40515;SDS011;26216;53.724;9.898;2023-02-26T16:05:06;3.00;;;1.52;;
40515;SDS011;26216;53.724;9.898;2023-02-26T16:07:35;1.98;;;0.80;;
40515;SDS011;26216;53.724;9.898;2023-02-26T16:10:03;2.00;;;0.82;;
40515;SDS011;26216;53.724;9.898;2023-02-26T16:12:36;2.92;;;0.90;;
40515;SDS011;26216;53.724;9.898;2023-02-26T16:15:18;2.38;;;1.23;;
40515;SDS011;26216;53.724;9.898;2023-02-26T16:17:56;2.92;;;0.82;;
40515;SDS011;26216;53.724;9.898;2023-02-26T16:20:24;1.80;;;0.90;;
40515;SDS011;26216;53.724;9.898;2023-02-26T16:22:57;2.78;;;1.30;;
40515;SDS011;26216;53.724;9.898;2023-02-26T16:25:29;1.75;;;1.00;;
40515;SDS011;26216;53.724;9.898;2023-02-26T16:28:09;5.28;;;1.15;;
40515;SDS011;26216;53.724;9.898;2023-02-26T16:30:41;2.15;;;0.90;;
40515;SDS011;26216;53.724;9.898;2023-02-26T16:33:10;3.67;;;1.10;;
40515;SDS011;26216;53.724;9.898;2023-02-26T16:35:41;1.20;;;0.77;;
40515;SDS011;26216;53.724;9.898;2023-02-26T16:40:42;1.95;;;0.70;;
40515;SDS011;26216;53.724;9.898;2023-02-26T16:45:49;2.47;;;0.85;;
40515;SDS011;26216;53.724;9.898;2023-02-26T16:48:23;4.03;;;1.40;;
40515;SDS011;26216;53.724;9.898;2023-02-26T16:50:58;2.75;;;0.90;;
40515;SDS011;26216;53.724;9.898;2023-02-26T16:53:34;4.65;;;1.23;;
40515;SDS011;26216;53.724;9.898;2023-02-26T16:56:02;2.30;;;1.08;;
40515;SDS011;26216;53.724;9.898;2023-02-26T16:58:29;4.38;;;1.90;;
40515;SDS011;26216;53.724;9.898;2023-02-26T17:01:01;3.67;;;1.70;;
40515;SDS011;26216;53.724;9.898;2023-02-26T17:03:33;3.25;;;1.88;;
40515;SDS011;26216;53.724;9.898;2023-02-26T17:06:18;2.85;;;1.65;;
40515;SDS011;26216;53.724;9.898;2023-02-26T17:08:50;3.28;;;1.30;;
40515;SDS011;26216;53.724;9.898;2023-02-26T17:11:37;2.83;;;1.70;;
40515;SDS011;26216;53.724;9.898;2023-02-26T17:16:37;3.53;;;1.70;;
40515;SDS011;26216;53.724;9.898;2023-02-26T17:19:03;4.70;;;1.63;;
40515;SDS011;26216;53.724;9.898;2023-02-26T17:21:29;3.67;;;2.20;;
40515;SDS011;26216;53.724;9.898;2023-02-26T17:23:56;3.53;;;2.00;;
40515;SDS011;26216;53.724;9.898;2023-02-26T17:26:24;3.50;;;2.00;;
40515;SDS011;26216;53.724;9.898;2023-02-26T17:28:51;3.47;;;1.90;;
40515;SDS011;26216;53.724;9.898;2023-02-26T17:31:27;3.38;;;2.20;;
40515;SDS011;26216;53.724;9.898;2023-02-26T17:33:53;3.88;;;2.25;;
40515;SDS011;26216;53.724;9.898;2023-02-26T17:36:21;3.78;;;2.13;;
40515;SDS011;26216;53.724;9.898;2023-02-26T17:38:47;4.15;;;2.20;;
40515;SDS011;26216;53.724;9.898;2023-02-26T17:41:15;4.82;;;2.10;;